<?xml version="1.0" encoding="UTF-8"?>
<gpx creator="WikiLoc - http://www.wikiloc.com" version="1.1" xmlns="http://www.topografix.com/GPX/1/1">
    <trk>
        <name>Circular La sénia</name>
        <cmt>Vuelta circular por caminos, caminos asfaltados, carretera y alguna senda para disfrutar un rato, hay unas escaleras de madera muy guapas y un puente colgante....</cmt>
        <desc>Vuelta circular por caminos, caminos asfaltados, carretera y alguna senda para disfrutar un rato, hay unas escaleras de madera muy guapas y un puente colgante....</desc>
        <trkseg>
            <trkpt lat="40.634133" lon="0.285738">
                <ele>357.747803</ele>
                <time>2012-01-28T11:17:05.532+01:00</time>
            </trkpt>
            <trkpt lat="40.634157" lon="0.285806">
                <ele>359.670410</ele>
                <time>2012-01-28T11:17:15.532+01:00</time>
            </trkpt>
            <trkpt lat="40.634159" lon="0.285773">
                <ele>370.725586</ele>
                <time>2012-01-28T11:17:35.532+01:00</time>
            </trkpt>
            <trkpt lat="40.634159" lon="0.285721">
                <ele>374.570801</ele>
                <time>2012-01-28T11:18:05.532+01:00</time>
            </trkpt>
            <trkpt lat="40.634157" lon="0.285720">
                <ele>373.128906</ele>
                <time>2012-01-28T11:18:45.532+01:00</time>
            </trkpt>
            <trkpt lat="40.634169" lon="0.285717">
                <ele>373.128906</ele>
                <time>2012-01-28T11:19:35.532+01:00</time>
            </trkpt>
            <trkpt lat="40.634166" lon="0.285717">
                <ele>374.570801</ele>
                <time>2012-01-28T11:20:35.532+01:00</time>
            </trkpt>
            <trkpt lat="40.634113" lon="0.285698">
                <ele>373.609497</ele>
                <time>2012-01-28T11:21:45.532+01:00</time>
            </trkpt>
            <trkpt lat="40.634145" lon="0.285743">
                <ele>374.570801</ele>
                <time>2012-01-28T11:23:05.532+01:00</time>
            </trkpt>
            <trkpt lat="40.634386" lon="0.285367">
                <ele>376.012817</ele>
                <time>2012-01-28T11:24:35.532+01:00</time>
            </trkpt>
            <trkpt lat="40.634489" lon="0.285422">
                <ele>376.012817</ele>
                <time>2012-01-28T11:26:15.532+01:00</time>
            </trkpt>
            <trkpt lat="40.634948" lon="0.285967">
                <ele>372.648193</ele>
                <time>2012-01-28T11:28:05.532+01:00</time>
            </trkpt>
            <trkpt lat="40.635050" lon="0.286050">
                <ele>372.167480</ele>
                <time>2012-01-28T11:30:05.532+01:00</time>
            </trkpt>
            <trkpt lat="40.635473" lon="0.285570">
                <ele>372.648193</ele>
                <time>2012-01-28T11:32:15.532+01:00</time>
            </trkpt>
            <trkpt lat="40.635535" lon="0.285481">
                <ele>371.686890</ele>
                <time>2012-01-28T11:34:35.532+01:00</time>
            </trkpt>
            <trkpt lat="40.635839" lon="0.285557">
                <ele>373.128906</ele>
                <time>2012-01-28T11:37:05.532+01:00</time>
            </trkpt>
            <trkpt lat="40.635938" lon="0.285702">
                <ele>374.090088</ele>
                <time>2012-01-28T11:39:45.532+01:00</time>
            </trkpt>
            <trkpt lat="40.636192" lon="0.285906">
                <ele>376.493530</ele>
                <time>2012-01-28T11:42:35.532+01:00</time>
            </trkpt>
            <trkpt lat="40.636575" lon="0.286960">
                <ele>376.012817</ele>
                <time>2012-01-28T11:45:35.532+01:00</time>
            </trkpt>
            <trkpt lat="40.637095" lon="0.288022">
                <ele>376.493530</ele>
                <time>2012-01-28T11:48:45.532+01:00</time>
            </trkpt>
            <trkpt lat="40.637608" lon="0.288985">
                <ele>381.780640</ele>
                <time>2012-01-28T11:52:05.532+01:00</time>
            </trkpt>
            <trkpt lat="40.637740" lon="0.288953">
                <ele>382.261353</ele>
                <time>2012-01-28T11:55:35.532+01:00</time>
            </trkpt>
            <trkpt lat="40.638175" lon="0.288682">
                <ele>382.261353</ele>
                <time>2012-01-28T11:59:15.532+01:00</time>
            </trkpt>
            <trkpt lat="40.638242" lon="0.288774">
                <ele>384.184082</ele>
                <time>2012-01-28T12:03:05.532+01:00</time>
            </trkpt>
            <trkpt lat="40.638428" lon="0.289204">
                <ele>388.029297</ele>
                <time>2012-01-28T12:07:05.532+01:00</time>
            </trkpt>
            <trkpt lat="40.638776" lon="0.289613">
                <ele>391.393799</ele>
                <time>2012-01-28T12:11:15.532+01:00</time>
            </trkpt>
            <trkpt lat="40.639088" lon="0.290341">
                <ele>395.239136</ele>
                <time>2012-01-28T12:15:35.532+01:00</time>
            </trkpt>
            <trkpt lat="40.639065" lon="0.290695">
                <ele>398.603760</ele>
                <time>2012-01-28T12:20:05.532+01:00</time>
            </trkpt>
            <trkpt lat="40.639140" lon="0.291342">
                <ele>401.487793</ele>
                <time>2012-01-28T12:24:45.532+01:00</time>
            </trkpt>
            <trkpt lat="40.639294" lon="0.291715">
                <ele>405.813721</ele>
                <time>2012-01-28T12:29:35.532+01:00</time>
            </trkpt>
            <trkpt lat="40.639748" lon="0.292252">
                <ele>405.813721</ele>
                <time>2012-01-28T12:34:35.532+01:00</time>
            </trkpt>
            <trkpt lat="40.640534" lon="0.292635">
                <ele>404.852295</ele>
                <time>2012-01-28T12:39:45.532+01:00</time>
            </trkpt>
            <trkpt lat="40.641332" lon="0.292908">
                <ele>403.410400</ele>
                <time>2012-01-28T12:45:05.532+01:00</time>
            </trkpt>
            <trkpt lat="40.641716" lon="0.293308">
                <ele>401.007080</ele>
                <time>2012-01-28T12:50:35.532+01:00</time>
            </trkpt>
            <trkpt lat="40.642489" lon="0.294627">
                <ele>398.603760</ele>
                <time>2012-01-28T12:56:15.532+01:00</time>
            </trkpt>
            <trkpt lat="40.642825" lon="0.295073">
                <ele>396.681152</ele>
                <time>2012-01-28T13:02:05.532+01:00</time>
            </trkpt>
            <trkpt lat="40.643076" lon="0.295619">
                <ele>396.200562</ele>
                <time>2012-01-28T13:08:05.532+01:00</time>
            </trkpt>
            <trkpt lat="40.643198" lon="0.296082">
                <ele>395.719849</ele>
                <time>2012-01-28T13:14:15.532+01:00</time>
            </trkpt>
            <trkpt lat="40.643571" lon="0.296722">
                <ele>395.719849</ele>
                <time>2012-01-28T13:20:35.532+01:00</time>
            </trkpt>
            <trkpt lat="40.643644" lon="0.296802">
                <ele>393.797241</ele>
                <time>2012-01-28T13:27:05.532+01:00</time>
            </trkpt>
            <trkpt lat="40.644040" lon="0.297090">
                <ele>393.316528</ele>
                <time>2012-01-28T13:33:45.532+01:00</time>
            </trkpt>
            <trkpt lat="40.644805" lon="0.297889">
                <ele>389.471191</ele>
                <time>2012-01-28T13:40:35.532+01:00</time>
            </trkpt>
            <trkpt lat="40.644898" lon="0.298005">
                <ele>387.067993</ele>
                <time>2012-01-28T13:47:35.532+01:00</time>
            </trkpt>
            <trkpt lat="40.645054" lon="0.298330">
                <ele>383.222656</ele>
                <time>2012-01-28T13:54:45.532+01:00</time>
            </trkpt>
            <trkpt lat="40.645180" lon="0.298519">
                <ele>381.780640</ele>
                <time>2012-01-28T14:02:05.532+01:00</time>
            </trkpt>
            <trkpt lat="40.645298" lon="0.298594">
                <ele>379.858032</ele>
                <time>2012-01-28T14:09:35.532+01:00</time>
            </trkpt>
            <trkpt lat="40.645411" lon="0.298698">
                <ele>377.935425</ele>
                <time>2012-01-28T14:17:15.532+01:00</time>
            </trkpt>
            <trkpt lat="40.645496" lon="0.298749">
                <ele>375.051514</ele>
                <time>2012-01-28T14:25:05.532+01:00</time>
            </trkpt>
            <trkpt lat="40.645791" lon="0.299099">
                <ele>368.322266</ele>
                <time>2012-01-28T14:33:05.532+01:00</time>
            </trkpt>
            <trkpt lat="40.645895" lon="0.299158">
                <ele>369.283691</ele>
                <time>2012-01-28T14:41:15.532+01:00</time>
            </trkpt>
            <trkpt lat="40.646095" lon="0.299364">
                <ele>368.802979</ele>
                <time>2012-01-28T14:49:35.532+01:00</time>
            </trkpt>
            <trkpt lat="40.646247" lon="0.299585">
                <ele>371.206299</ele>
                <time>2012-01-28T14:58:05.532+01:00</time>
            </trkpt>
            <trkpt lat="40.646496" lon="0.299848">
                <ele>372.167480</ele>
                <time>2012-01-28T15:06:45.532+01:00</time>
            </trkpt>
            <trkpt lat="40.646612" lon="0.299963">
                <ele>374.570801</ele>
                <time>2012-01-28T15:15:35.532+01:00</time>
            </trkpt>
            <trkpt lat="40.647150" lon="0.300487">
                <ele>376.012817</ele>
                <time>2012-01-28T15:24:35.532+01:00</time>
            </trkpt>
            <trkpt lat="40.647170" lon="0.300752">
                <ele>376.974243</ele>
                <time>2012-01-28T15:33:45.532+01:00</time>
            </trkpt>
            <trkpt lat="40.646507" lon="0.301870">
                <ele>373.128906</ele>
                <time>2012-01-28T15:43:05.532+01:00</time>
            </trkpt>
            <trkpt lat="40.645833" lon="0.302957">
                <ele>370.725586</ele>
                <time>2012-01-28T15:52:35.532+01:00</time>
            </trkpt>
            <trkpt lat="40.645278" lon="0.303879">
                <ele>367.360962</ele>
                <time>2012-01-28T16:02:15.532+01:00</time>
            </trkpt>
            <trkpt lat="40.644821" lon="0.304423">
                <ele>365.438354</ele>
                <time>2012-01-28T16:12:05.532+01:00</time>
            </trkpt>
            <trkpt lat="40.644549" lon="0.304816">
                <ele>363.996338</ele>
                <time>2012-01-28T16:22:05.532+01:00</time>
            </trkpt>
            <trkpt lat="40.644119" lon="0.305363">
                <ele>360.151123</ele>
                <time>2012-01-28T16:32:15.532+01:00</time>
            </trkpt>
            <trkpt lat="40.642938" lon="0.306915">
                <ele>354.383179</ele>
                <time>2012-01-28T16:42:35.532+01:00</time>
            </trkpt>
            <trkpt lat="40.642704" lon="0.307303">
                <ele>352.460571</ele>
                <time>2012-01-28T16:53:05.532+01:00</time>
            </trkpt>
            <trkpt lat="40.642717" lon="0.307622">
                <ele>351.979858</ele>
                <time>2012-01-28T17:03:45.532+01:00</time>
            </trkpt>
            <trkpt lat="40.643163" lon="0.308780">
                <ele>350.537842</ele>
                <time>2012-01-28T17:14:35.532+01:00</time>
            </trkpt>
            <trkpt lat="40.643559" lon="0.309578">
                <ele>349.576538</ele>
                <time>2012-01-28T17:25:35.532+01:00</time>
            </trkpt>
            <trkpt lat="40.643642" lon="0.310315">
                <ele>349.095825</ele>
                <time>2012-01-28T17:36:45.532+01:00</time>
            </trkpt>
            <trkpt lat="40.643650" lon="0.310505">
                <ele>349.095825</ele>
                <time>2012-01-28T17:48:05.532+01:00</time>
            </trkpt>
            <trkpt lat="40.643566" lon="0.313069">
                <ele>339.963379</ele>
                <time>2012-01-28T17:59:35.532+01:00</time>
            </trkpt>
            <trkpt lat="40.643354" lon="0.313926">
                <ele>337.079468</ele>
                <time>2012-01-28T18:11:15.532+01:00</time>
            </trkpt>
            <trkpt lat="40.642913" lon="0.315481">
                <ele>333.234131</ele>
                <time>2012-01-28T18:23:05.532+01:00</time>
            </trkpt>
            <trkpt lat="40.642221" lon="0.317876">
                <ele>326.985596</ele>
                <time>2012-01-28T18:35:05.532+01:00</time>
            </trkpt>
            <trkpt lat="40.640989" lon="0.322049">
                <ele>319.775635</ele>
                <time>2012-01-28T18:47:15.532+01:00</time>
            </trkpt>
            <trkpt lat="40.640757" lon="0.322217">
                <ele>320.256348</ele>
                <time>2012-01-28T18:59:35.532+01:00</time>
            </trkpt>
            <trkpt lat="40.640647" lon="0.322182">
                <ele>318.333618</ele>
                <time>2012-01-28T19:12:05.532+01:00</time>
            </trkpt>
            <trkpt lat="40.640595" lon="0.322195">
                <ele>317.372437</ele>
                <time>2012-01-28T19:24:45.532+01:00</time>
            </trkpt>
            <trkpt lat="40.639824" lon="0.321577">
                <ele>318.333618</ele>
                <time>2012-01-28T19:37:35.532+01:00</time>
            </trkpt>
            <trkpt lat="40.639273" lon="0.321012">
                <ele>319.775635</ele>
                <time>2012-01-28T19:50:35.532+01:00</time>
            </trkpt>
            <trkpt lat="40.637264" lon="0.319655">
                <ele>320.256348</ele>
                <time>2012-01-28T20:03:45.532+01:00</time>
            </trkpt>
            <trkpt lat="40.636437" lon="0.319289">
                <ele>320.256348</ele>
                <time>2012-01-28T20:17:05.532+01:00</time>
            </trkpt>
            <trkpt lat="40.635865" lon="0.319062">
                <ele>320.737061</ele>
                <time>2012-01-28T20:30:35.532+01:00</time>
            </trkpt>
            <trkpt lat="40.635472" lon="0.320187">
                <ele>318.814331</ele>
                <time>2012-01-28T20:44:15.532+01:00</time>
            </trkpt>
            <trkpt lat="40.635259" lon="0.322643">
                <ele>314.969116</ele>
                <time>2012-01-28T20:58:05.532+01:00</time>
            </trkpt>
            <trkpt lat="40.635373" lon="0.323937">
                <ele>311.604492</ele>
                <time>2012-01-28T21:12:05.532+01:00</time>
            </trkpt>
            <trkpt lat="40.635383" lon="0.324308">
                <ele>312.085205</ele>
                <time>2012-01-28T21:26:15.532+01:00</time>
            </trkpt>
            <trkpt lat="40.635323" lon="0.324660">
                <ele>312.085205</ele>
                <time>2012-01-28T21:40:35.532+01:00</time>
            </trkpt>
            <trkpt lat="40.634975" lon="0.325284">
                <ele>310.643066</ele>
                <time>2012-01-28T21:55:05.532+01:00</time>
            </trkpt>
            <trkpt lat="40.634113" lon="0.326492">
                <ele>310.162476</ele>
                <time>2012-01-28T22:09:45.532+01:00</time>
            </trkpt>
            <trkpt lat="40.633490" lon="0.327308">
                <ele>308.239868</ele>
                <time>2012-01-28T22:24:35.532+01:00</time>
            </trkpt>
            <trkpt lat="40.633235" lon="0.327337">
                <ele>307.759277</ele>
                <time>2012-01-28T22:39:35.532+01:00</time>
            </trkpt>
            <trkpt lat="40.631645" lon="0.325926">
                <ele>306.317261</ele>
                <time>2012-01-28T22:54:45.532+01:00</time>
            </trkpt>
            <trkpt lat="40.631526" lon="0.325813">
                <ele>307.759277</ele>
                <time>2012-01-28T23:10:05.532+01:00</time>
            </trkpt>
            <trkpt lat="40.630869" lon="0.325231">
                <ele>307.278564</ele>
                <time>2012-01-28T23:25:35.532+01:00</time>
            </trkpt>
            <trkpt lat="40.630139" lon="0.324612">
                <ele>307.759277</ele>
                <time>2012-01-28T23:41:15.532+01:00</time>
            </trkpt>
            <trkpt lat="40.628653" lon="0.323253">
                <ele>308.239868</ele>
                <time>2012-01-28T23:57:05.532+01:00</time>
            </trkpt>
            <trkpt lat="40.628591" lon="0.322962">
                <ele>307.759277</ele>
                <time>2012-01-29T00:13:05.532+01:00</time>
            </trkpt>
            <trkpt lat="40.629063" lon="0.321902">
                <ele>309.201172</ele>
                <time>2012-01-29T00:29:15.532+01:00</time>
            </trkpt>
            <trkpt lat="40.629428" lon="0.320924">
                <ele>311.123779</ele>
                <time>2012-01-29T00:45:35.532+01:00</time>
            </trkpt>
            <trkpt lat="40.629564" lon="0.320413">
                <ele>311.604492</ele>
                <time>2012-01-29T01:02:05.532+01:00</time>
            </trkpt>
            <trkpt lat="40.630144" lon="0.319400">
                <ele>314.969116</ele>
                <time>2012-01-29T01:18:45.532+01:00</time>
            </trkpt>
            <trkpt lat="40.631623" lon="0.317357">
                <ele>318.333618</ele>
                <time>2012-01-29T01:35:35.532+01:00</time>
            </trkpt>
            <trkpt lat="40.631618" lon="0.316969">
                <ele>317.853027</ele>
                <time>2012-01-29T01:52:35.532+01:00</time>
            </trkpt>
            <trkpt lat="40.630955" lon="0.316332">
                <ele>317.853027</ele>
                <time>2012-01-29T02:09:45.532+01:00</time>
            </trkpt>
            <trkpt lat="40.630619" lon="0.316124">
                <ele>319.775635</ele>
                <time>2012-01-29T02:27:05.532+01:00</time>
            </trkpt>
            <trkpt lat="40.630476" lon="0.315588">
                <ele>320.256348</ele>
                <time>2012-01-29T02:44:35.532+01:00</time>
            </trkpt>
            <trkpt lat="40.630391" lon="0.315457">
                <ele>320.737061</ele>
                <time>2012-01-29T03:02:15.532+01:00</time>
            </trkpt>
            <trkpt lat="40.630056" lon="0.315590">
                <ele>320.256348</ele>
                <time>2012-01-29T03:20:05.532+01:00</time>
            </trkpt>
            <trkpt lat="40.630111" lon="0.315604">
                <ele>320.256348</ele>
                <time>2012-01-29T03:38:05.532+01:00</time>
            </trkpt>
            <trkpt lat="40.630174" lon="0.315531">
                <ele>320.256348</ele>
                <time>2012-01-29T03:56:15.532+01:00</time>
            </trkpt>
            <trkpt lat="40.630045" lon="0.315367">
                <ele>320.256348</ele>
                <time>2012-01-29T04:14:35.532+01:00</time>
            </trkpt>
            <trkpt lat="40.629811" lon="0.315282">
                <ele>319.295044</ele>
                <time>2012-01-29T04:33:05.532+01:00</time>
            </trkpt>
            <trkpt lat="40.629649" lon="0.315130">
                <ele>318.333618</ele>
                <time>2012-01-29T04:51:45.532+01:00</time>
            </trkpt>
            <trkpt lat="40.629606" lon="0.315060">
                <ele>318.333618</ele>
                <time>2012-01-29T05:10:35.532+01:00</time>
            </trkpt>
            <trkpt lat="40.629371" lon="0.314845">
                <ele>318.814331</ele>
                <time>2012-01-29T05:29:35.532+01:00</time>
            </trkpt>
            <trkpt lat="40.629187" lon="0.314620">
                <ele>318.814331</ele>
                <time>2012-01-29T05:48:45.532+01:00</time>
            </trkpt>
            <trkpt lat="40.629098" lon="0.314563">
                <ele>318.333618</ele>
                <time>2012-01-29T06:08:05.532+01:00</time>
            </trkpt>
            <trkpt lat="40.629015" lon="0.314600">
                <ele>318.814331</ele>
                <time>2012-01-29T06:27:35.532+01:00</time>
            </trkpt>
            <trkpt lat="40.628875" lon="0.314232">
                <ele>318.814331</ele>
                <time>2012-01-29T06:47:15.532+01:00</time>
            </trkpt>
            <trkpt lat="40.629098" lon="0.313721">
                <ele>319.295044</ele>
                <time>2012-01-29T07:07:05.532+01:00</time>
            </trkpt>
            <trkpt lat="40.629255" lon="0.313403">
                <ele>320.737061</ele>
                <time>2012-01-29T07:27:05.532+01:00</time>
            </trkpt>
            <trkpt lat="40.629266" lon="0.313344">
                <ele>320.737061</ele>
                <time>2012-01-29T07:47:15.532+01:00</time>
            </trkpt>
            <trkpt lat="40.629089" lon="0.313017">
                <ele>320.256348</ele>
                <time>2012-01-29T08:07:35.532+01:00</time>
            </trkpt>
            <trkpt lat="40.628865" lon="0.312790">
                <ele>320.737061</ele>
                <time>2012-01-29T08:28:05.532+01:00</time>
            </trkpt>
            <trkpt lat="40.628386" lon="0.313161">
                <ele>320.256348</ele>
                <time>2012-01-29T08:48:45.532+01:00</time>
            </trkpt>
            <trkpt lat="40.628249" lon="0.313309">
                <ele>320.737061</ele>
                <time>2012-01-29T09:09:35.532+01:00</time>
            </trkpt>
            <trkpt lat="40.628133" lon="0.313563">
                <ele>320.256348</ele>
                <time>2012-01-29T09:30:35.532+01:00</time>
            </trkpt>
            <trkpt lat="40.627930" lon="0.314233">
                <ele>319.775635</ele>
                <time>2012-01-29T09:51:45.532+01:00</time>
            </trkpt>
            <trkpt lat="40.626772" lon="0.316638">
                <ele>315.930420</ele>
                <time>2012-01-29T10:13:05.532+01:00</time>
            </trkpt>
            <trkpt lat="40.626250" lon="0.317382">
                <ele>315.930420</ele>
                <time>2012-01-29T10:34:35.532+01:00</time>
            </trkpt>
            <trkpt lat="40.625267" lon="0.319461">
                <ele>310.643066</ele>
                <time>2012-01-29T10:56:15.532+01:00</time>
            </trkpt>
            <trkpt lat="40.624950" lon="0.319834">
                <ele>308.720459</ele>
                <time>2012-01-29T11:18:05.532+01:00</time>
            </trkpt>
            <trkpt lat="40.624384" lon="0.321109">
                <ele>306.317261</ele>
                <time>2012-01-29T11:40:05.532+01:00</time>
            </trkpt>
            <trkpt lat="40.623807" lon="0.322335">
                <ele>304.875244</ele>
                <time>2012-01-29T12:02:15.532+01:00</time>
            </trkpt>
            <trkpt lat="40.623665" lon="0.322598">
                <ele>303.913940</ele>
                <time>2012-01-29T12:24:35.532+01:00</time>
            </trkpt>
            <trkpt lat="40.622965" lon="0.324035">
                <ele>302.471924</ele>
                <time>2012-01-29T12:47:05.532+01:00</time>
            </trkpt>
            <trkpt lat="40.622657" lon="0.324728">
                <ele>301.510620</ele>
                <time>2012-01-29T13:09:45.532+01:00</time>
            </trkpt>
            <trkpt lat="40.622516" lon="0.324992">
                <ele>301.510620</ele>
                <time>2012-01-29T13:32:35.532+01:00</time>
            </trkpt>
            <trkpt lat="40.621754" lon="0.326723">
                <ele>297.665405</ele>
                <time>2012-01-29T13:55:35.532+01:00</time>
            </trkpt>
            <trkpt lat="40.621462" lon="0.327730">
                <ele>291.416748</ele>
                <time>2012-01-29T14:18:45.532+01:00</time>
            </trkpt>
            <trkpt lat="40.621320" lon="0.327672">
                <ele>290.936157</ele>
                <time>2012-01-29T14:42:05.532+01:00</time>
            </trkpt>
            <trkpt lat="40.621316" lon="0.327644">
                <ele>291.416748</ele>
                <time>2012-01-29T15:05:35.532+01:00</time>
            </trkpt>
            <trkpt lat="40.621310" lon="0.327642">
                <ele>292.858765</ele>
                <time>2012-01-29T15:29:15.532+01:00</time>
            </trkpt>
            <trkpt lat="40.621322" lon="0.327646">
                <ele>291.416748</ele>
                <time>2012-01-29T15:53:05.532+01:00</time>
            </trkpt>
            <trkpt lat="40.621310" lon="0.327644">
                <ele>291.897461</ele>
                <time>2012-01-29T16:17:05.532+01:00</time>
            </trkpt>
            <trkpt lat="40.621301" lon="0.327648">
                <ele>289.494141</ele>
                <time>2012-01-29T16:41:15.532+01:00</time>
            </trkpt>
            <trkpt lat="40.621315" lon="0.327642">
                <ele>289.974854</ele>
                <time>2012-01-29T17:05:35.532+01:00</time>
            </trkpt>
            <trkpt lat="40.621456" lon="0.327671">
                <ele>289.494141</ele>
                <time>2012-01-29T17:30:05.532+01:00</time>
            </trkpt>
            <trkpt lat="40.621427" lon="0.327904">
                <ele>289.494141</ele>
                <time>2012-01-29T17:54:45.532+01:00</time>
            </trkpt>
            <trkpt lat="40.621216" lon="0.328666">
                <ele>289.013550</ele>
                <time>2012-01-29T18:19:35.532+01:00</time>
            </trkpt>
            <trkpt lat="40.620271" lon="0.330615">
                <ele>286.129517</ele>
                <time>2012-01-29T18:44:35.532+01:00</time>
            </trkpt>
            <trkpt lat="40.619929" lon="0.331370">
                <ele>285.648804</ele>
                <time>2012-01-29T19:09:45.532+01:00</time>
            </trkpt>
            <trkpt lat="40.619657" lon="0.331721">
                <ele>283.245605</ele>
                <time>2012-01-29T19:35:05.532+01:00</time>
            </trkpt>
            <trkpt lat="40.619568" lon="0.331829">
                <ele>282.765015</ele>
                <time>2012-01-29T20:00:35.532+01:00</time>
            </trkpt>
            <trkpt lat="40.619570" lon="0.331810">
                <ele>284.687622</ele>
                <time>2012-01-29T20:26:15.532+01:00</time>
            </trkpt>
            <trkpt lat="40.619567" lon="0.331811">
                <ele>283.245605</ele>
                <time>2012-01-29T20:52:05.532+01:00</time>
            </trkpt>
            <trkpt lat="40.619558" lon="0.331812">
                <ele>283.726196</ele>
                <time>2012-01-29T21:18:05.532+01:00</time>
            </trkpt>
            <trkpt lat="40.619580" lon="0.331812">
                <ele>282.765015</ele>
                <time>2012-01-29T21:44:15.532+01:00</time>
            </trkpt>
            <trkpt lat="40.619565" lon="0.331810">
                <ele>282.284302</ele>
                <time>2012-01-29T22:10:35.532+01:00</time>
            </trkpt>
            <trkpt lat="40.619553" lon="0.331811">
                <ele>282.765015</ele>
                <time>2012-01-29T22:37:05.532+01:00</time>
            </trkpt>
            <trkpt lat="40.619567" lon="0.331814">
                <ele>279.880859</ele>
                <time>2012-01-29T23:03:45.532+01:00</time>
            </trkpt>
            <trkpt lat="40.619562" lon="0.331818">
                <ele>281.803589</ele>
                <time>2012-01-29T23:30:35.532+01:00</time>
            </trkpt>
            <trkpt lat="40.619252" lon="0.332203">
                <ele>281.803589</ele>
                <time>2012-01-29T23:57:35.532+01:00</time>
            </trkpt>
            <trkpt lat="40.618719" lon="0.332764">
                <ele>279.880859</ele>
                <time>2012-01-30T00:24:45.532+01:00</time>
            </trkpt>
            <trkpt lat="40.618326" lon="0.333100">
                <ele>279.400269</ele>
                <time>2012-01-30T00:52:05.532+01:00</time>
            </trkpt>
            <trkpt lat="40.617897" lon="0.333812">
                <ele>278.438965</ele>
                <time>2012-01-30T01:19:35.532+01:00</time>
            </trkpt>
            <trkpt lat="40.617808" lon="0.333890">
                <ele>277.958252</ele>
                <time>2012-01-30T01:47:15.532+01:00</time>
            </trkpt>
            <trkpt lat="40.617659" lon="0.333811">
                <ele>276.997070</ele>
                <time>2012-01-30T02:15:05.532+01:00</time>
            </trkpt>
            <trkpt lat="40.616968" lon="0.333202">
                <ele>279.400269</ele>
                <time>2012-01-30T02:43:05.532+01:00</time>
            </trkpt>
            <trkpt lat="40.616739" lon="0.333167">
                <ele>278.919678</ele>
                <time>2012-01-30T03:11:15.532+01:00</time>
            </trkpt>
            <trkpt lat="40.616528" lon="0.333067">
                <ele>277.477661</ele>
                <time>2012-01-30T03:39:35.532+01:00</time>
            </trkpt>
            <trkpt lat="40.616282" lon="0.332803">
                <ele>276.997070</ele>
                <time>2012-01-30T04:08:05.532+01:00</time>
            </trkpt>
            <trkpt lat="40.615767" lon="0.332366">
                <ele>277.958252</ele>
                <time>2012-01-30T04:36:45.532+01:00</time>
            </trkpt>
            <trkpt lat="40.615341" lon="0.332113">
                <ele>279.880859</ele>
                <time>2012-01-30T05:05:35.532+01:00</time>
            </trkpt>
            <trkpt lat="40.614748" lon="0.331643">
                <ele>279.880859</ele>
                <time>2012-01-30T05:34:35.532+01:00</time>
            </trkpt>
            <trkpt lat="40.614043" lon="0.330922">
                <ele>279.880859</ele>
                <time>2012-01-30T06:03:45.532+01:00</time>
            </trkpt>
            <trkpt lat="40.613182" lon="0.330286">
                <ele>282.765015</ele>
                <time>2012-01-30T06:33:05.532+01:00</time>
            </trkpt>
            <trkpt lat="40.612664" lon="0.329938">
                <ele>283.245605</ele>
                <time>2012-01-30T07:02:35.532+01:00</time>
            </trkpt>
            <trkpt lat="40.612030" lon="0.329837">
                <ele>283.726196</ele>
                <time>2012-01-30T07:32:15.532+01:00</time>
            </trkpt>
            <trkpt lat="40.611821" lon="0.329659">
                <ele>282.765015</ele>
                <time>2012-01-30T08:02:05.532+01:00</time>
            </trkpt>
            <trkpt lat="40.611641" lon="0.329628">
                <ele>282.284302</ele>
                <time>2012-01-30T08:32:05.532+01:00</time>
            </trkpt>
            <trkpt lat="40.611604" lon="0.329633">
                <ele>282.765015</ele>
                <time>2012-01-30T09:02:15.532+01:00</time>
            </trkpt>
            <trkpt lat="40.611412" lon="0.329846">
                <ele>279.880859</ele>
                <time>2012-01-30T09:32:35.532+01:00</time>
            </trkpt>
            <trkpt lat="40.611261" lon="0.330095">
                <ele>276.035645</ele>
                <time>2012-01-30T10:03:05.532+01:00</time>
            </trkpt>
            <trkpt lat="40.611128" lon="0.330076">
                <ele>272.671143</ele>
                <time>2012-01-30T10:33:45.532+01:00</time>
            </trkpt>
            <trkpt lat="40.611149" lon="0.329761">
                <ele>267.864502</ele>
                <time>2012-01-30T11:04:35.532+01:00</time>
            </trkpt>
            <trkpt lat="40.610998" lon="0.329465">
                <ele>264.499878</ele>
                <time>2012-01-30T11:35:35.532+01:00</time>
            </trkpt>
            <trkpt lat="40.610970" lon="0.329434">
                <ele>264.980591</ele>
                <time>2012-01-30T12:06:45.532+01:00</time>
            </trkpt>
            <trkpt lat="40.610963" lon="0.329497">
                <ele>264.499878</ele>
                <time>2012-01-30T12:38:05.532+01:00</time>
            </trkpt>
            <trkpt lat="40.611009" lon="0.329445">
                <ele>264.019287</ele>
                <time>2012-01-30T13:09:35.532+01:00</time>
            </trkpt>
            <trkpt lat="40.610868" lon="0.329250">
                <ele>266.903198</ele>
                <time>2012-01-30T13:41:15.532+01:00</time>
            </trkpt>
            <trkpt lat="40.610727" lon="0.328967">
                <ele>271.709717</ele>
                <time>2012-01-30T14:13:05.532+01:00</time>
            </trkpt>
            <trkpt lat="40.610575" lon="0.328939">
                <ele>277.477661</ele>
                <time>2012-01-30T14:45:05.532+01:00</time>
            </trkpt>
            <trkpt lat="40.610499" lon="0.328888">
                <ele>277.958252</ele>
                <time>2012-01-30T15:17:15.532+01:00</time>
            </trkpt>
            <trkpt lat="40.610353" lon="0.328849">
                <ele>281.803589</ele>
                <time>2012-01-30T15:49:35.532+01:00</time>
            </trkpt>
            <trkpt lat="40.610307" lon="0.328846">
                <ele>282.284302</ele>
                <time>2012-01-30T16:22:05.532+01:00</time>
            </trkpt>
            <trkpt lat="40.610116" lon="0.328627">
                <ele>282.284302</ele>
                <time>2012-01-30T16:54:45.532+01:00</time>
            </trkpt>
            <trkpt lat="40.609803" lon="0.328422">
                <ele>282.765015</ele>
                <time>2012-01-30T17:27:35.532+01:00</time>
            </trkpt>
            <trkpt lat="40.609822" lon="0.328135">
                <ele>283.726196</ele>
                <time>2012-01-30T18:00:35.532+01:00</time>
            </trkpt>
            <trkpt lat="40.610033" lon="0.327070">
                <ele>284.687622</ele>
                <time>2012-01-30T18:33:45.532+01:00</time>
            </trkpt>
            <trkpt lat="40.610277" lon="0.325646">
                <ele>286.129517</ele>
                <time>2012-01-30T19:07:05.532+01:00</time>
            </trkpt>
            <trkpt lat="40.610912" lon="0.321144">
                <ele>291.897461</ele>
                <time>2012-01-30T19:40:35.532+01:00</time>
            </trkpt>
            <trkpt lat="40.611316" lon="0.319057">
                <ele>292.858765</ele>
                <time>2012-01-30T20:14:15.532+01:00</time>
            </trkpt>
            <trkpt lat="40.611801" lon="0.317652">
                <ele>294.300781</ele>
                <time>2012-01-30T20:48:05.532+01:00</time>
            </trkpt>
            <trkpt lat="40.612259" lon="0.316880">
                <ele>295.261963</ele>
                <time>2012-01-30T21:22:05.532+01:00</time>
            </trkpt>
            <trkpt lat="40.612476" lon="0.315883">
                <ele>298.626709</ele>
                <time>2012-01-30T21:56:15.532+01:00</time>
            </trkpt>
            <trkpt lat="40.612781" lon="0.313935">
                <ele>301.510620</ele>
                <time>2012-01-30T22:30:35.532+01:00</time>
            </trkpt>
            <trkpt lat="40.613034" lon="0.311777">
                <ele>301.510620</ele>
                <time>2012-01-30T23:05:05.532+01:00</time>
            </trkpt>
            <trkpt lat="40.613229" lon="0.309859">
                <ele>302.952515</ele>
                <time>2012-01-30T23:39:45.532+01:00</time>
            </trkpt>
            <trkpt lat="40.613694" lon="0.306995">
                <ele>307.278564</ele>
                <time>2012-01-31T00:14:35.532+01:00</time>
            </trkpt>
            <trkpt lat="40.613934" lon="0.304936">
                <ele>309.681885</ele>
                <time>2012-01-31T00:49:35.532+01:00</time>
            </trkpt>
            <trkpt lat="40.613715" lon="0.303474">
                <ele>310.162476</ele>
                <time>2012-01-31T01:24:45.532+01:00</time>
            </trkpt>
            <trkpt lat="40.613285" lon="0.301594">
                <ele>311.604492</ele>
                <time>2012-01-31T02:00:05.532+01:00</time>
            </trkpt>
            <trkpt lat="40.613282" lon="0.301528">
                <ele>312.085205</ele>
                <time>2012-01-31T02:35:35.532+01:00</time>
            </trkpt>
            <trkpt lat="40.613542" lon="0.300545">
                <ele>313.527222</ele>
                <time>2012-01-31T03:11:15.532+01:00</time>
            </trkpt>
            <trkpt lat="40.613559" lon="0.299541">
                <ele>314.007812</ele>
                <time>2012-01-31T03:47:05.532+01:00</time>
            </trkpt>
            <trkpt lat="40.613486" lon="0.297927">
                <ele>314.969116</ele>
                <time>2012-01-31T04:23:05.532+01:00</time>
            </trkpt>
            <trkpt lat="40.613916" lon="0.294449">
                <ele>317.372437</ele>
                <time>2012-01-31T04:59:15.532+01:00</time>
            </trkpt>
            <trkpt lat="40.613990" lon="0.292655">
                <ele>319.295044</ele>
                <time>2012-01-31T05:35:35.532+01:00</time>
            </trkpt>
            <trkpt lat="40.614012" lon="0.290671">
                <ele>321.217773</ele>
                <time>2012-01-31T06:12:05.532+01:00</time>
            </trkpt>
            <trkpt lat="40.613852" lon="0.288574">
                <ele>319.775635</ele>
                <time>2012-01-31T06:48:45.532+01:00</time>
            </trkpt>
            <trkpt lat="40.613772" lon="0.286892">
                <ele>319.295044</ele>
                <time>2012-01-31T07:25:35.532+01:00</time>
            </trkpt>
            <trkpt lat="40.613776" lon="0.286167">
                <ele>320.737061</ele>
                <time>2012-01-31T08:02:35.532+01:00</time>
            </trkpt>
            <trkpt lat="40.613979" lon="0.286053">
                <ele>320.256348</ele>
                <time>2012-01-31T08:39:45.532+01:00</time>
            </trkpt>
            <trkpt lat="40.616252" lon="0.288493">
                <ele>325.543579</ele>
                <time>2012-01-31T09:17:05.532+01:00</time>
            </trkpt>
            <trkpt lat="40.617787" lon="0.290398">
                <ele>328.427612</ele>
                <time>2012-01-31T09:54:35.532+01:00</time>
            </trkpt>
            <trkpt lat="40.618605" lon="0.291487">
                <ele>329.388916</ele>
                <time>2012-01-31T10:32:15.532+01:00</time>
            </trkpt>
            <trkpt lat="40.619209" lon="0.292873">
                <ele>329.869507</ele>
                <time>2012-01-31T11:10:05.532+01:00</time>
            </trkpt>
            <trkpt lat="40.619820" lon="0.294341">
                <ele>329.388916</ele>
                <time>2012-01-31T11:48:05.532+01:00</time>
            </trkpt>
            <trkpt lat="40.620601" lon="0.295764">
                <ele>328.427612</ele>
                <time>2012-01-31T12:26:15.532+01:00</time>
            </trkpt>
            <trkpt lat="40.620698" lon="0.295894">
                <ele>327.946777</ele>
                <time>2012-01-31T13:04:35.532+01:00</time>
            </trkpt>
            <trkpt lat="40.620983" lon="0.295884">
                <ele>328.427612</ele>
                <time>2012-01-31T13:43:05.532+01:00</time>
            </trkpt>
            <trkpt lat="40.622272" lon="0.294974">
                <ele>331.792114</ele>
                <time>2012-01-31T14:21:45.532+01:00</time>
            </trkpt>
            <trkpt lat="40.622615" lon="0.294688">
                <ele>331.792114</ele>
                <time>2012-01-31T15:00:35.532+01:00</time>
            </trkpt>
            <trkpt lat="40.622401" lon="0.294011">
                <ele>332.753540</ele>
                <time>2012-01-31T15:39:35.532+01:00</time>
            </trkpt>
            <trkpt lat="40.622292" lon="0.293741">
                <ele>333.234131</ele>
                <time>2012-01-31T16:18:45.532+01:00</time>
            </trkpt>
            <trkpt lat="40.622026" lon="0.292721">
                <ele>334.195435</ele>
                <time>2012-01-31T16:58:05.532+01:00</time>
            </trkpt>
            <trkpt lat="40.621836" lon="0.291610">
                <ele>334.676147</ele>
                <time>2012-01-31T17:37:35.532+01:00</time>
            </trkpt>
            <trkpt lat="40.621817" lon="0.291317">
                <ele>335.156738</ele>
                <time>2012-01-31T18:17:15.532+01:00</time>
            </trkpt>
            <trkpt lat="40.621950" lon="0.290222">
                <ele>336.598877</ele>
                <time>2012-01-31T18:57:05.532+01:00</time>
            </trkpt>
            <trkpt lat="40.621992" lon="0.289707">
                <ele>337.079468</ele>
                <time>2012-01-31T19:37:05.532+01:00</time>
            </trkpt>
            <trkpt lat="40.622503" lon="0.288700">
                <ele>338.040771</ele>
                <time>2012-01-31T20:17:15.532+01:00</time>
            </trkpt>
            <trkpt lat="40.623468" lon="0.287162">
                <ele>342.847290</ele>
                <time>2012-01-31T20:57:35.532+01:00</time>
            </trkpt>
            <trkpt lat="40.624225" lon="0.285864">
                <ele>346.692627</ele>
                <time>2012-01-31T21:38:05.532+01:00</time>
            </trkpt>
            <trkpt lat="40.624628" lon="0.285020">
                <ele>348.615234</ele>
                <time>2012-01-31T22:18:45.532+01:00</time>
            </trkpt>
            <trkpt lat="40.624861" lon="0.284199">
                <ele>350.057251</ele>
                <time>2012-01-31T22:59:35.532+01:00</time>
            </trkpt>
            <trkpt lat="40.624939" lon="0.284066">
                <ele>350.537842</ele>
                <time>2012-01-31T23:40:35.532+01:00</time>
            </trkpt>
            <trkpt lat="40.624898" lon="0.283997">
                <ele>350.057251</ele>
                <time>2012-02-01T00:21:45.532+01:00</time>
            </trkpt>
            <trkpt lat="40.624964" lon="0.283904">
                <ele>350.057251</ele>
                <time>2012-02-01T01:03:05.532+01:00</time>
            </trkpt>
            <trkpt lat="40.625099" lon="0.283897">
                <ele>350.057251</ele>
                <time>2012-02-01T01:44:35.532+01:00</time>
            </trkpt>
            <trkpt lat="40.625229" lon="0.283814">
                <ele>349.095825</ele>
                <time>2012-02-01T02:26:15.532+01:00</time>
            </trkpt>
            <trkpt lat="40.625322" lon="0.283849">
                <ele>348.615234</ele>
                <time>2012-02-01T03:08:05.532+01:00</time>
            </trkpt>
            <trkpt lat="40.625352" lon="0.283769">
                <ele>346.692627</ele>
                <time>2012-02-01T03:50:05.532+01:00</time>
            </trkpt>
            <trkpt lat="40.625367" lon="0.283552">
                <ele>341.885986</ele>
                <time>2012-02-01T04:32:15.532+01:00</time>
            </trkpt>
            <trkpt lat="40.625424" lon="0.283381">
                <ele>339.002075</ele>
                <time>2012-02-01T05:14:35.532+01:00</time>
            </trkpt>
            <trkpt lat="40.625563" lon="0.282790">
                <ele>333.234131</ele>
                <time>2012-02-01T05:57:05.532+01:00</time>
            </trkpt>
            <trkpt lat="40.625674" lon="0.282572">
                <ele>330.350220</ele>
                <time>2012-02-01T06:39:45.532+01:00</time>
            </trkpt>
            <trkpt lat="40.625852" lon="0.282451">
                <ele>327.466187</ele>
                <time>2012-02-01T07:22:35.532+01:00</time>
            </trkpt>
            <trkpt lat="40.626188" lon="0.282016">
                <ele>322.659668</ele>
                <time>2012-02-01T08:05:35.532+01:00</time>
            </trkpt>
            <trkpt lat="40.626296" lon="0.282075">
                <ele>323.140381</ele>
                <time>2012-02-01T08:48:45.532+01:00</time>
            </trkpt>
            <trkpt lat="40.626825" lon="0.282651">
                <ele>320.737061</ele>
                <time>2012-02-01T09:32:05.532+01:00</time>
            </trkpt>
            <trkpt lat="40.626976" lon="0.283103">
                <ele>316.411011</ele>
                <time>2012-02-01T10:15:35.532+01:00</time>
            </trkpt>
            <trkpt lat="40.627145" lon="0.283302">
                <ele>313.527222</ele>
                <time>2012-02-01T10:59:15.532+01:00</time>
            </trkpt>
            <trkpt lat="40.627247" lon="0.283574">
                <ele>312.565796</ele>
                <time>2012-02-01T11:43:05.532+01:00</time>
            </trkpt>
            <trkpt lat="40.627199" lon="0.283552">
                <ele>313.046509</ele>
                <time>2012-02-01T12:27:05.532+01:00</time>
            </trkpt>
            <trkpt lat="40.627223" lon="0.283576">
                <ele>314.488403</ele>
                <time>2012-02-01T13:11:15.532+01:00</time>
            </trkpt>
            <trkpt lat="40.627209" lon="0.283524">
                <ele>314.488403</ele>
                <time>2012-02-01T13:55:35.532+01:00</time>
            </trkpt>
            <trkpt lat="40.627356" lon="0.283323">
                <ele>314.488403</ele>
                <time>2012-02-01T14:40:05.532+01:00</time>
            </trkpt>
            <trkpt lat="40.627364" lon="0.283258">
                <ele>313.046509</ele>
                <time>2012-02-01T15:24:45.532+01:00</time>
            </trkpt>
            <trkpt lat="40.627427" lon="0.283075">
                <ele>313.527222</ele>
                <time>2012-02-01T16:09:35.532+01:00</time>
            </trkpt>
            <trkpt lat="40.627693" lon="0.282790">
                <ele>316.891724</ele>
                <time>2012-02-01T16:54:35.532+01:00</time>
            </trkpt>
            <trkpt lat="40.628035" lon="0.282557">
                <ele>319.295044</ele>
                <time>2012-02-01T17:39:45.532+01:00</time>
            </trkpt>
            <trkpt lat="40.628223" lon="0.282329">
                <ele>322.178955</ele>
                <time>2012-02-01T18:25:05.532+01:00</time>
            </trkpt>
            <trkpt lat="40.628568" lon="0.282038">
                <ele>323.140381</ele>
                <time>2012-02-01T19:10:35.532+01:00</time>
            </trkpt>
            <trkpt lat="40.629279" lon="0.281143">
                <ele>323.140381</ele>
                <time>2012-02-01T19:56:15.532+01:00</time>
            </trkpt>
            <trkpt lat="40.629819" lon="0.280377">
                <ele>325.062988</ele>
                <time>2012-02-01T20:42:05.532+01:00</time>
            </trkpt>
            <trkpt lat="40.630367" lon="0.279647">
                <ele>325.062988</ele>
                <time>2012-02-01T21:28:05.532+01:00</time>
            </trkpt>
            <trkpt lat="40.630400" lon="0.279618">
                <ele>325.543579</ele>
                <time>2012-02-01T22:14:15.532+01:00</time>
            </trkpt>
            <trkpt lat="40.630761" lon="0.279576">
                <ele>325.543579</ele>
                <time>2012-02-01T23:00:35.532+01:00</time>
            </trkpt>
            <trkpt lat="40.631068" lon="0.279399">
                <ele>326.024170</ele>
                <time>2012-02-01T23:47:05.532+01:00</time>
            </trkpt>
            <trkpt lat="40.631066" lon="0.279283">
                <ele>326.504883</ele>
                <time>2012-02-02T00:33:45.532+01:00</time>
            </trkpt>
            <trkpt lat="40.631117" lon="0.279244">
                <ele>325.543579</ele>
                <time>2012-02-02T01:20:35.532+01:00</time>
            </trkpt>
            <trkpt lat="40.631166" lon="0.279256">
                <ele>324.101562</ele>
                <time>2012-02-02T02:07:35.532+01:00</time>
            </trkpt>
            <trkpt lat="40.631183" lon="0.279220">
                <ele>321.698364</ele>
                <time>2012-02-02T02:54:45.532+01:00</time>
            </trkpt>
            <trkpt lat="40.631160" lon="0.279249">
                <ele>325.543579</ele>
                <time>2012-02-02T03:42:05.532+01:00</time>
            </trkpt>
            <trkpt lat="40.631126" lon="0.279272">
                <ele>324.582275</ele>
                <time>2012-02-02T04:29:35.532+01:00</time>
            </trkpt>
            <trkpt lat="40.631326" lon="0.278948">
                <ele>322.178955</ele>
                <time>2012-02-02T05:17:15.532+01:00</time>
            </trkpt>
            <trkpt lat="40.631343" lon="0.278839">
                <ele>321.698364</ele>
                <time>2012-02-02T06:05:05.532+01:00</time>
            </trkpt>
            <trkpt lat="40.631425" lon="0.278626">
                <ele>321.698364</ele>
                <time>2012-02-02T06:53:05.532+01:00</time>
            </trkpt>
            <trkpt lat="40.631587" lon="0.278399">
                <ele>321.698364</ele>
                <time>2012-02-02T07:41:15.532+01:00</time>
            </trkpt>
            <trkpt lat="40.631870" lon="0.278154">
                <ele>322.659668</ele>
                <time>2012-02-02T08:29:35.532+01:00</time>
            </trkpt>
            <trkpt lat="40.632326" lon="0.277878">
                <ele>322.659668</ele>
                <time>2012-02-02T09:18:05.532+01:00</time>
            </trkpt>
            <trkpt lat="40.632575" lon="0.277711">
                <ele>322.659668</ele>
                <time>2012-02-02T10:06:45.532+01:00</time>
            </trkpt>
            <trkpt lat="40.633692" lon="0.277158">
                <ele>323.140381</ele>
                <time>2012-02-02T10:55:35.532+01:00</time>
            </trkpt>
            <trkpt lat="40.634040" lon="0.277045">
                <ele>323.140381</ele>
                <time>2012-02-02T11:44:35.532+01:00</time>
            </trkpt>
            <trkpt lat="40.634292" lon="0.277305">
                <ele>327.466187</ele>
                <time>2012-02-02T12:33:45.532+01:00</time>
            </trkpt>
            <trkpt lat="40.634244" lon="0.277419">
                <ele>330.350220</ele>
                <time>2012-02-02T13:23:05.532+01:00</time>
            </trkpt>
            <trkpt lat="40.634398" lon="0.277786">
                <ele>331.792114</ele>
                <time>2012-02-02T14:12:35.532+01:00</time>
            </trkpt>
            <trkpt lat="40.634320" lon="0.277905">
                <ele>332.753540</ele>
                <time>2012-02-02T15:02:15.532+01:00</time>
            </trkpt>
            <trkpt lat="40.633825" lon="0.278247">
                <ele>332.753540</ele>
                <time>2012-02-02T15:52:05.532+01:00</time>
            </trkpt>
            <trkpt lat="40.633355" lon="0.278694">
                <ele>335.637329</ele>
                <time>2012-02-02T16:42:05.532+01:00</time>
            </trkpt>
            <trkpt lat="40.632536" lon="0.279420">
                <ele>342.366699</ele>
                <time>2012-02-02T17:32:15.532+01:00</time>
            </trkpt>
            <trkpt lat="40.632124" lon="0.279789">
                <ele>346.692627</ele>
                <time>2012-02-02T18:22:35.532+01:00</time>
            </trkpt>
            <trkpt lat="40.631872" lon="0.280306">
                <ele>350.057251</ele>
                <time>2012-02-02T19:13:05.532+01:00</time>
            </trkpt>
            <trkpt lat="40.631967" lon="0.280768">
                <ele>353.421875</ele>
                <time>2012-02-02T20:03:45.532+01:00</time>
            </trkpt>
            <trkpt lat="40.632240" lon="0.281638">
                <ele>355.825195</ele>
                <time>2012-02-02T20:54:35.532+01:00</time>
            </trkpt>
            <trkpt lat="40.632462" lon="0.282404">
                <ele>358.228394</ele>
                <time>2012-02-02T21:45:35.532+01:00</time>
            </trkpt>
            <trkpt lat="40.633102" lon="0.284538">
                <ele>369.283691</ele>
                <time>2012-02-02T22:36:45.532+01:00</time>
            </trkpt>
            <trkpt lat="40.633266" lon="0.284418">
                <ele>369.283691</ele>
                <time>2012-02-02T23:28:05.532+01:00</time>
            </trkpt>
            <trkpt lat="40.633970" lon="0.283370">
                <ele>370.244873</ele>
                <time>2012-02-03T00:19:35.532+01:00</time>
            </trkpt>
            <trkpt lat="40.634222" lon="0.283214">
                <ele>368.802979</ele>
                <time>2012-02-03T01:11:15.532+01:00</time>
            </trkpt>
            <trkpt lat="40.634513" lon="0.283295">
                <ele>367.360962</ele>
                <time>2012-02-03T02:03:05.532+01:00</time>
            </trkpt>
            <trkpt lat="40.634505" lon="0.283540">
                <ele>367.360962</ele>
                <time>2012-02-03T02:55:05.532+01:00</time>
            </trkpt>
            <trkpt lat="40.634321" lon="0.284086">
                <ele>366.880249</ele>
                <time>2012-02-03T03:47:15.532+01:00</time>
            </trkpt>
            <trkpt lat="40.634558" lon="0.284248">
                <ele>366.399536</ele>
                <time>2012-02-03T04:39:35.532+01:00</time>
            </trkpt>
            <trkpt lat="40.634739" lon="0.284324">
                <ele>366.399536</ele>
                <time>2012-02-03T05:32:05.532+01:00</time>
            </trkpt>
            <trkpt lat="40.634849" lon="0.284411">
                <ele>365.918945</ele>
                <time>2012-02-03T06:24:45.532+01:00</time>
            </trkpt>
            <trkpt lat="40.634869" lon="0.284655">
                <ele>365.918945</ele>
                <time>2012-02-03T07:17:35.532+01:00</time>
            </trkpt>
            <trkpt lat="40.634122" lon="0.285608">
                <ele>363.515747</ele>
                <time>2012-02-03T08:10:35.532+01:00</time>
            </trkpt>
            <trkpt lat="40.634147" lon="0.285766">
                <ele>363.515747</ele>
                <time>2012-02-03T09:03:45.532+01:00</time>
            </trkpt>
            <trkpt lat="40.634079" lon="0.285792">
                <ele>359.189697</ele>
                <time>2012-02-03T09:57:05.532+01:00</time>
            </trkpt>
            <trkpt lat="40.634079" lon="0.285792">
                <ele>362.554321</ele>
                <time>2012-02-03T10:50:35.532+01:00</time>
            </trkpt>
            <trkpt lat="40.633640" lon="0.285043">
                <ele>364.476929</ele>
                <time>2012-02-03T11:44:15.532+01:00</time>
            </trkpt>
            <trkpt lat="40.633790" lon="0.285073">
                <ele>364.957642</ele>
                <time>2012-02-03T12:38:05.532+01:00</time>
            </trkpt>
            <trkpt lat="40.633768" lon="0.284985">
                <ele>363.996338</ele>
                <time>2012-02-03T13:32:05.532+01:00</time>
            </trkpt>
            <trkpt lat="40.633852" lon="0.285005">
                <ele>363.515747</ele>
                <time>2012-02-03T14:26:15.532+01:00</time>
            </trkpt>
            <trkpt lat="40.633870" lon="0.284869">
                <ele>364.476929</ele>
                <time>2012-02-03T15:20:35.532+01:00</time>
            </trkpt>
            <trkpt lat="40.633902" lon="0.284914">
                <ele>365.918945</ele>
                <time>2012-02-03T16:15:05.532+01:00</time>
            </trkpt>
            <trkpt lat="40.633849" lon="0.284958">
                <ele>369.283691</ele>
                <time>2012-02-03T17:09:45.532+01:00</time>
            </trkpt>
            <trkpt lat="40.633849" lon="0.284958">
                <ele>372.167480</ele>
                <time>2012-02-03T18:04:35.532+01:00</time>
            </trkpt>
            <trkpt lat="40.633852" lon="0.284727">
                <ele>372.648193</ele>
                <time>2012-02-03T18:59:35.532+01:00</time>
            </trkpt>
            <trkpt lat="40.634060" lon="0.285135">
                <ele>374.090088</ele>
                <time>2012-02-03T19:54:45.532+01:00</time>
            </trkpt>
            <trkpt lat="40.634037" lon="0.285148">
                <ele>373.609497</ele>
                <time>2012-02-03T20:50:05.532+01:00</time>
            </trkpt>
            <trkpt lat="40.634081" lon="0.285156">
                <ele>375.051514</ele>
                <time>2012-02-03T21:45:35.532+01:00</time>
            </trkpt>
            <trkpt lat="40.634068" lon="0.285125">
                <ele>374.090088</ele>
                <time>2012-02-03T22:41:15.532+01:00</time>
            </trkpt>
        </trkseg>
    </trk>
</gpx>